Idalia, Colorado
Current Conditions -  °F | °C
As of 11:55 PM on Saturday 25 Oct 2014 (Local Time) from KSYF Reporting Station
Clear Clear  
Wind Chill: 51°   Ceiling: Unl
Heat Index: 51°   Visibility: 10mi
Dew Point: 40°   Wind: 0mph
Humidity: 67%   Direction: NA
Pressure: 29.89"   Gusts: NA
Location:  39.7°N, 102.29°W
Report Text: KSYF 260555Z AUTO 00000KT 10SM CLR 10/05 A2989 RMK AO2 T01030045 10202 20082 402910037
Loading
Personal Weather Stations






























Interactive Weather Map
Tropical Storm Tracking
New forecast layout! Learn more

10-Day Weather Forecast

Advertisements
Track Severe Weather on mobile